createdAt,value
2018-07-10T00:01:49.069Z,3.37
2018-07-10T00:11:47.110Z,3.37
2018-07-10T00:21:43.272Z,3.37
2018-07-10T00:31:42.373Z,3.36
2018-07-10T00:41:39.266Z,3.36
2018-07-10T00:51:37.904Z,3.36
2018-07-10T01:01:36.992Z,3.36
2018-07-10T01:11:33.982Z,3.36
2018-07-10T01:21:29.083Z,3.36
2018-07-10T01:31:25.476Z,3.36
2018-07-10T01:41:22.788Z,3.36
2018-07-10T01:51:20.527Z,3.36
2018-07-10T02:01:17.699Z,3.35
2018-07-10T02:11:15.888Z,3.35
2018-07-10T02:21:13.523Z,3.35
2018-07-10T02:31:07.820Z,3.35
2018-07-10T02:41:04.655Z,3.34
2018-07-10T02:51:01.578Z,3.34
2018-07-10T03:00:59.278Z,3.34
2018-07-10T03:10:55.026Z,3.34
2018-07-10T03:20:53.203Z,3.34
2018-07-10T03:30:50.815Z,3.34
2018-07-10T03:40:50.036Z,3.34
2018-07-10T03:50:49.218Z,3.34
2018-07-10T04:00:46.925Z,3.35
2018-07-10T04:10:44.955Z,3.36
2018-07-10T04:20:42.862Z,3.36
2018-07-10T04:30:41.101Z,3.36
2018-07-10T04:40:35.253Z,3.37
2018-07-10T04:50:33.136Z,3.37
2018-07-10T05:00:30.607Z,3.38
2018-07-10T05:10:27.689Z,3.39
2018-07-10T05:20:24.985Z,3.39
2018-07-10T05:30:17.673Z,3.39
2018-07-10T05:40:13.004Z,3.40
2018-07-10T05:50:06.878Z,3.41
2018-07-10T05:59:59.601Z,3.42
2018-07-10T06:09:45.825Z,3.44
2018-07-10T06:19:33.584Z,3.42
2018-07-10T06:29:32.408Z,3.41
2018-07-10T06:39:29.061Z,3.42
2018-07-10T06:49:27.850Z,3.41
2018-07-10T06:59:25.118Z,3.42
2018-07-10T07:09:21.079Z,3.41
2018-07-10T07:19:15.903Z,3.43
2018-07-10T07:29:14.470Z,3.42
2018-07-10T07:39:13.425Z,3.41
2018-07-10T07:49:11.617Z,3.45
2018-07-10T07:59:06.430Z,3.43
2018-07-10T08:09:05.813Z,3.43
2018-07-10T08:19:05.752Z,3.42
2018-07-10T08:29:03.879Z,3.42
2018-07-10T08:39:03.005Z,3.42
2018-07-10T08:49:01.598Z,3.42
2018-07-10T08:59:00.436Z,3.42
2018-07-10T09:08:54.138Z,3.42
2018-07-10T09:18:51.905Z,3.42
2018-07-10T09:28:49.877Z,3.42
2018-07-10T09:38:46.513Z,3.41
2018-07-10T09:48:46.247Z,3.41
2018-07-10T09:58:24.062Z,3.41
2018-07-10T10:08:19.283Z,3.41
2018-07-10T10:18:16.708Z,3.41
2018-07-10T10:28:15.786Z,3.41
2018-07-10T10:38:14.075Z,3.41
2018-07-10T10:47:59.680Z,3.41
2018-07-10T10:57:29.473Z,3.41
2018-07-10T11:07:06.202Z,3.41
2018-07-10T11:17:03.200Z,3.41
2018-07-10T11:26:43.384Z,3.41
2018-07-10T11:36:21.443Z,3.41
2018-07-10T11:45:58.044Z,3.41
2018-07-10T11:55:36.263Z,3.41
2018-07-10T12:05:13.946Z,3.41
2018-07-10T12:14:52.679Z,3.41
2018-07-10T12:24:32.685Z,3.42
2018-07-10T12:34:11.426Z,3.41
2018-07-10T12:43:50.583Z,3.42
2018-07-10T12:53:30.873Z,3.42
2018-07-10T13:03:01.133Z,3.41
2018-07-10T13:12:37.587Z,3.41
2018-07-10T13:22:14.275Z,3.41
2018-07-10T13:32:00.933Z,3.41
2018-07-10T13:41:58.177Z,3.41
2018-07-10T13:51:54.113Z,3.42
2018-07-10T14:01:49.986Z,3.41
2018-07-10T14:11:50.400Z,3.41
2018-07-10T14:21:48.990Z,3.41
2018-07-10T14:31:36.010Z,3.41
2018-07-10T14:41:33.375Z,3.41
2018-07-10T14:51:30.690Z,3.45
2018-07-10T15:01:25.163Z,3.46
2018-07-10T15:11:17.027Z,3.46
2018-07-10T15:21:15.130Z,3.44
2018-07-10T15:31:13.211Z,3.43
2018-07-10T15:41:09.251Z,3.43
2018-07-10T15:51:03.262Z,3.43
2018-07-10T16:00:59.487Z,3.43
2018-07-10T16:10:56.731Z,3.42
2018-07-10T16:20:51.192Z,3.42
2018-07-10T16:30:49.550Z,3.42
2018-07-10T16:40:43.765Z,3.42
2018-07-10T16:50:35.934Z,3.41
2018-07-10T17:00:28.315Z,3.41
2018-07-10T17:10:10.610Z,3.41
2018-07-10T17:20:07.521Z,3.42
2018-07-10T17:29:57.065Z,3.42
2018-07-10T17:39:48.751Z,3.41
2018-07-10T17:49:39.375Z,3.41
2018-07-10T17:59:31.801Z,3.41
2018-07-10T18:09:27.782Z,3.40
2018-07-10T18:19:23.338Z,3.40
2018-07-10T18:29:21.171Z,3.40
2018-07-10T18:39:18.441Z,3.40
2018-07-10T18:49:09.892Z,3.40
2018-07-10T18:59:06.241Z,3.40
2018-07-10T19:08:59.059Z,3.40
2018-07-10T19:18:51.869Z,3.40
2018-07-10T19:28:45.423Z,3.39
2018-07-10T19:38:41.571Z,3.39
2018-07-10T19:48:36.384Z,3.39
2018-07-10T19:58:33.036Z,3.39
2018-07-10T20:08:30.718Z,3.39
2018-07-10T20:18:23.546Z,3.39
2018-07-10T20:28:12.366Z,3.39
2018-07-10T20:38:08.077Z,3.39
2018-07-10T20:48:04.828Z,3.39
2018-07-10T20:57:59.876Z,3.39
2018-07-10T21:07:58.571Z,3.39
2018-07-10T21:17:56.556Z,3.39
2018-07-10T21:27:52.294Z,3.38
2018-07-10T21:37:50.105Z,3.38
2018-07-10T21:47:43.210Z,3.38
2018-07-10T21:57:35.673Z,3.38
2018-07-10T22:07:33.485Z,3.38
2018-07-10T22:17:29.253Z,3.38
2018-07-10T22:27:26.380Z,3.38
2018-07-10T22:37:25.136Z,3.37
2018-07-10T22:47:20.590Z,3.37
2018-07-10T22:57:19.098Z,3.37
2018-07-10T23:07:16.386Z,3.37
2018-07-10T23:17:13.790Z,3.37
2018-07-10T23:27:10.074Z,3.37
2018-07-10T23:37:07.347Z,3.37
2018-07-10T23:47:05.627Z,3.37
2018-07-10T23:57:03.636Z,3.37
